createdAt,value
2023-02-13T00:01:53.899Z,9.80
2023-02-13T00:04:20.651Z,10.70
2023-02-13T00:06:47.383Z,11.37
2023-02-13T00:09:14.641Z,10.20
2023-02-13T00:11:41.383Z,11.20
2023-02-13T00:14:08.249Z,10.80
2023-02-13T00:16:35.093Z,8.43
2023-02-13T00:19:03.324Z,9.97
2023-02-13T00:21:29.991Z,10.53
2023-02-13T00:23:56.628Z,9.90
2023-02-13T00:26:23.375Z,10.30
2023-02-13T00:28:50.038Z,10.30
2023-02-13T00:31:19.846Z,8.93
2023-02-13T00:33:46.610Z,10.97
2023-02-13T00:36:16.292Z,10.90
2023-02-13T00:38:43.834Z,10.03
2023-02-13T00:41:11.231Z,10.20
2023-02-13T00:43:37.945Z,9.30
2023-02-13T00:46:05.216Z,9.77
2023-02-13T00:48:33.929Z,9.07
2023-02-13T00:51:01.128Z,10.03
2023-02-13T00:53:29.230Z,9.40
2023-02-13T00:55:55.956Z,11.87
2023-02-13T00:58:23.039Z,10.20
2023-02-13T01:00:51.252Z,8.90
2023-02-13T01:03:19.006Z,9.03
2023-02-13T01:05:46.058Z,9.00
2023-02-13T01:08:13.633Z,9.80
2023-02-13T01:10:42.453Z,9.00
2023-02-13T01:13:09.805Z,10.53
2023-02-13T01:15:37.519Z,9.20
2023-02-13T01:18:04.459Z,9.10
2023-02-13T01:20:31.178Z,9.30
2023-02-13T01:22:58.575Z,10.07
2023-02-13T01:25:25.705Z,9.40
2023-02-13T01:27:53.828Z,9.30
2023-02-13T01:30:20.875Z,9.87
2023-02-13T01:32:47.861Z,9.80
2023-02-13T01:35:15.576Z,9.67
2023-02-13T01:37:42.661Z,9.90
2023-02-13T01:40:12.860Z,9.90
2023-02-13T01:42:39.882Z,10.10
2023-02-13T01:45:22.320Z,9.60
2023-02-13T01:47:52.158Z,7.60
2023-02-13T01:50:22.596Z,9.87
2023-02-13T01:52:54.923Z,9.40
2023-02-13T01:55:21.930Z,9.03
2023-02-13T01:57:52.877Z,9.40
2023-02-13T02:00:21.817Z,10.33
2023-02-13T02:02:52.949Z,9.67
2023-02-13T02:05:21.666Z,9.27
2023-02-13T02:07:49.620Z,10.07
2023-02-13T02:10:19.280Z,8.70
2023-02-13T02:12:51.918Z,9.17
2023-02-13T02:15:19.061Z,8.07
2023-02-13T02:17:47.347Z,8.10
2023-02-13T02:20:24.434Z,8.20
2023-02-13T02:23:41.296Z,9.60
2023-02-13T02:26:53.824Z,8.53
2023-02-13T02:29:59.286Z,8.37
2023-02-13T02:32:43.494Z,8.30
2023-02-13T02:35:19.048Z,10.17
2023-02-13T02:38:03.584Z,9.47
2023-02-13T02:40:37.889Z,9.13
2023-02-13T02:43:20.666Z,9.57
2023-02-13T02:45:54.492Z,9.50
2023-02-13T02:48:29.148Z,9.63
2023-02-13T02:51:02.733Z,9.13
2023-02-13T02:53:37.725Z,9.93
2023-02-13T02:56:10.573Z,10.93
2023-02-13T02:58:42.117Z,10.90
2023-02-13T03:01:13.683Z,9.97
2023-02-13T03:03:42.115Z,8.47
2023-02-13T03:06:15.233Z,9.07
2023-02-13T03:08:45.710Z,10.17
2023-02-13T03:11:12.419Z,9.93
2023-02-13T03:13:41.767Z,11.07
2023-02-13T03:16:15.644Z,10.50
2023-02-13T03:18:46.234Z,10.33
2023-02-13T03:21:17.200Z,9.97
2023-02-13T03:23:52.081Z,9.13
2023-02-13T03:26:32.459Z,11.67
2023-02-13T03:29:09.030Z,9.23
2023-02-13T03:31:41.452Z,10.10
2023-02-13T03:34:13.187Z,8.60
2023-02-13T03:36:47.528Z,10.17
2023-02-13T03:39:21.638Z,8.37
2023-02-13T03:41:53.926Z,11.00
2023-02-13T03:44:28.248Z,11.70
2023-02-13T03:46:59.570Z,9.60
2023-02-13T03:49:32.059Z,9.70
2023-02-13T03:52:04.953Z,11.10
2023-02-13T03:54:35.599Z,11.57
2023-02-13T03:57:02.354Z,11.37
2023-02-13T03:59:32.677Z,11.43
2023-02-13T04:02:03.774Z,11.10
2023-02-13T04:04:40.521Z,12.00
2023-02-13T04:07:10.644Z,13.80
2023-02-13T04:09:40.403Z,12.50
2023-02-13T04:12:16.209Z,12.30
2023-02-13T04:14:49.596Z,13.10
2023-02-13T04:17:21.737Z,12.73
2023-02-13T04:19:50.010Z,13.30
2023-02-13T04:22:16.884Z,13.27
2023-02-13T04:24:43.608Z,12.97
2023-02-13T04:27:14.137Z,12.37
2023-02-13T04:29:40.796Z,14.87
2023-02-13T04:32:07.541Z,14.03
2023-02-13T04:34:34.285Z,14.40
2023-02-13T04:37:02.250Z,13.00
2023-02-13T04:39:28.998Z,11.40
2023-02-13T04:41:55.693Z,13.67
2023-02-13T04:44:22.343Z,12.00
2023-02-13T04:46:49.074Z,13.40
2023-02-13T04:49:15.830Z,13.90
2023-02-13T04:51:42.575Z,13.07
2023-02-13T04:54:11.024Z,13.50
2023-02-13T04:56:37.679Z,12.50
2023-02-13T04:59:04.340Z,14.07
2023-02-13T05:01:31.244Z,11.53
2023-02-13T05:03:58.039Z,13.50
2023-02-13T05:06:24.721Z,12.97
2023-02-13T05:08:51.392Z,11.93
2023-02-13T05:11:19.433Z,12.43
2023-02-13T05:13:46.082Z,11.80
2023-02-13T05:16:12.898Z,10.53
2023-02-13T05:18:39.678Z,10.23
2023-02-13T05:21:06.544Z,11.20
2023-02-13T05:23:33.388Z,9.47
2023-02-13T05:26:00.111Z,10.30
2023-02-13T05:28:28.201Z,9.97
2023-02-13T05:30:55.218Z,10.97
2023-02-13T05:33:22.028Z,9.67
2023-02-13T05:35:48.865Z,10.00
2023-02-13T05:38:15.577Z,9.93
2023-02-13T05:40:42.259Z,8.60
2023-02-13T05:43:08.922Z,9.87
2023-02-13T05:45:36.906Z,7.90
2023-02-13T05:48:03.758Z,9.90
2023-02-13T05:50:30.469Z,9.10
2023-02-13T05:52:57.165Z,9.50
2023-02-13T05:55:23.895Z,8.90
2023-02-13T05:57:50.550Z,7.70
2023-02-13T06:00:18.305Z,7.53
2023-02-13T06:02:46.301Z,9.17
2023-02-13T06:05:12.967Z,8.20
2023-02-13T06:07:39.630Z,7.60
2023-02-13T06:10:07.418Z,8.40
2023-02-13T06:12:34.060Z,8.00
2023-02-13T06:15:00.782Z,8.80
2023-02-13T06:17:27.430Z,7.33
2023-02-13T06:19:55.510Z,9.43
2023-02-13T06:22:22.157Z,8.43
2023-02-13T06:24:48.877Z,8.27
2023-02-13T06:27:15.515Z,8.50
2023-02-13T06:29:42.191Z,9.03
2023-02-13T06:32:08.838Z,7.03
2023-02-13T06:34:35.560Z,8.13
2023-02-13T06:37:03.519Z,7.60
2023-02-13T06:39:30.181Z,7.80
2023-02-13T06:41:56.848Z,8.80
2023-02-13T06:44:23.721Z,8.60
2023-02-13T06:46:50.431Z,7.83
2023-02-13T06:49:17.149Z,7.60
2023-02-13T06:51:43.831Z,7.57
2023-02-13T06:54:11.878Z,7.20
2023-02-13T06:56:38.573Z,6.60
2023-02-13T06:59:05.329Z,6.03
2023-02-13T07:01:31.996Z,5.90
2023-02-13T07:03:58.713Z,6.40
2023-02-13T07:06:25.454Z,6.30
2023-02-13T07:08:52.171Z,5.70
2023-02-13T07:11:21.073Z,6.63
2023-02-13T07:13:47.829Z,6.27
2023-02-13T07:16:14.956Z,5.63
2023-02-13T07:18:41.746Z,6.23
2023-02-13T07:21:08.804Z,5.63
2023-02-13T07:23:35.777Z,6.30
2023-02-13T07:26:03.038Z,6.20
2023-02-13T07:28:31.171Z,5.33
2023-02-13T07:30:58.502Z,6.10
2023-02-13T07:33:25.514Z,6.67
2023-02-13T07:35:52.683Z,5.47
2023-02-13T07:38:19.424Z,5.90
2023-02-13T07:40:46.152Z,5.20
2023-02-13T07:43:13.285Z,5.40
2023-02-13T07:45:41.326Z,4.73
2023-02-13T07:48:08.079Z,4.57
2023-02-13T07:50:35.061Z,4.90
2023-02-13T07:53:02.411Z,4.17
2023-02-13T07:55:30.370Z,5.00
2023-02-13T07:57:57.135Z,4.80
2023-02-13T08:00:24.026Z,5.10
2023-02-13T08:02:52.076Z,4.10
2023-02-13T08:05:18.874Z,4.33
2023-02-13T08:07:45.547Z,5.30
2023-02-13T08:10:13.483Z,4.53
2023-02-13T08:12:40.328Z,4.33
2023-02-13T08:15:09.745Z,3.60
2023-02-13T08:17:36.472Z,3.60
2023-02-13T08:20:05.971Z,4.87
2023-02-13T08:22:32.650Z,4.30
2023-02-13T08:24:59.371Z,4.30
2023-02-13T08:27:26.069Z,4.20
2023-02-13T08:29:52.838Z,4.63
2023-02-13T08:32:20.148Z,5.00
2023-02-13T08:34:46.881Z,4.63
2023-02-13T08:37:15.352Z,2.90
2023-02-13T08:39:42.125Z,4.27
2023-02-13T08:42:09.009Z,4.40
2023-02-13T08:44:36.149Z,4.40
2023-02-13T08:47:02.834Z,4.47
2023-02-13T08:49:29.690Z,3.80
2023-02-13T08:51:56.385Z,4.40
2023-02-13T08:54:24.460Z,5.33
2023-02-13T08:56:51.194Z,4.10
2023-02-13T08:59:18.141Z,4.30
2023-02-13T09:01:44.879Z,4.67
2023-02-13T09:04:11.698Z,3.67
2023-02-13T09:06:38.524Z,4.00
2023-02-13T09:09:05.624Z,3.70
2023-02-13T09:11:33.718Z,2.80
2023-02-13T09:14:00.417Z,4.97
2023-02-13T09:16:27.243Z,4.50
2023-02-13T09:18:54.168Z,4.47
2023-02-13T09:21:22.465Z,3.60
2023-02-13T09:23:49.202Z,4.10
2023-02-13T09:26:18.592Z,3.97
2023-02-13T09:28:47.936Z,4.27
2023-02-13T09:31:16.506Z,3.70
2023-02-13T09:33:44.473Z,3.57
2023-02-13T09:36:13.453Z,4.20
2023-02-13T09:38:40.537Z,3.90
2023-02-13T09:41:12.276Z,3.93
2023-02-13T09:43:44.454Z,4.07
2023-02-13T09:46:15.633Z,4.80
2023-02-13T09:48:45.660Z,5.07
2023-02-13T09:51:16.078Z,3.97
2023-02-13T09:53:54.360Z,4.33
2023-02-13T09:56:29.182Z,4.20
2023-02-13T09:59:02.729Z,3.87
2023-02-13T10:01:34.092Z,3.60
2023-02-13T10:04:21.208Z,4.13
2023-02-13T10:06:54.654Z,4.00
2023-02-13T10:09:30.799Z,3.03
2023-02-13T10:12:33.533Z,4.30
2023-02-13T10:15:14.071Z,3.50
2023-02-13T10:17:45.109Z,4.20
2023-02-13T10:20:25.303Z,4.60
2023-02-13T10:22:56.872Z,4.13
2023-02-13T10:25:27.532Z,3.93
2023-02-13T10:27:58.909Z,4.10
2023-02-13T10:30:31.150Z,3.90
2023-02-13T10:33:04.545Z,4.10
2023-02-13T10:35:32.195Z,3.87
2023-02-13T10:38:00.359Z,4.50
2023-02-13T10:40:32.547Z,5.07
2023-02-13T10:43:07.448Z,3.33
2023-02-13T10:46:00.129Z,3.73
2023-02-13T10:48:45.181Z,4.00
2023-02-13T10:51:17.152Z,3.73
2023-02-13T10:53:57.005Z,4.43
2023-02-13T10:56:27.026Z,4.03
2023-02-13T10:59:09.177Z,4.20
2023-02-13T11:01:45.041Z,3.57
2023-02-13T11:04:14.913Z,5.40
2023-02-13T11:06:43.846Z,4.30
2023-02-13T11:09:10.903Z,4.03
2023-02-13T11:11:40.207Z,4.60
2023-02-13T11:14:13.575Z,3.93
2023-02-13T11:16:51.199Z,4.60
2023-02-13T11:19:26.262Z,4.30
2023-02-13T11:21:59.290Z,4.40
2023-02-13T11:24:27.754Z,3.63
2023-02-13T11:27:00.634Z,3.77
2023-02-13T11:29:29.689Z,4.53
2023-02-13T11:32:17.236Z,4.30
2023-02-13T11:34:45.597Z,3.90
2023-02-13T11:37:19.070Z,4.50
2023-02-13T11:39:49.533Z,3.83
2023-02-13T11:42:21.859Z,3.90
2023-02-13T11:44:52.725Z,3.80
2023-02-13T11:47:38.890Z,4.10
2023-02-13T11:50:24.680Z,3.97
2023-02-13T11:52:56.036Z,3.83
2023-02-13T11:55:30.457Z,3.87
2023-02-13T11:57:59.426Z,4.23
2023-02-13T12:00:30.049Z,3.20
2023-02-13T12:02:56.960Z,3.60
2023-02-13T12:05:27.410Z,3.23
2023-02-13T12:07:58.609Z,3.60
2023-02-13T12:10:27.084Z,3.20
2023-02-13T12:12:56.376Z,4.33
2023-02-13T12:15:26.084Z,3.37
2023-02-13T12:18:11.017Z,4.00
2023-02-13T12:20:47.112Z,4.30
2023-02-13T12:23:24.621Z,4.60
2023-02-13T12:26:06.051Z,4.00
2023-02-13T12:28:44.536Z,5.20
2023-02-13T12:31:29.212Z,5.80
2023-02-13T12:34:34.768Z,4.80
2023-02-13T12:37:14.682Z,4.57
2023-02-13T12:39:47.439Z,4.83
2023-02-13T12:42:27.451Z,5.37
2023-02-13T12:45:15.852Z,3.87
2023-02-13T12:47:56.656Z,4.60
2023-02-13T12:50:51.735Z,4.07
2023-02-13T12:53:55.077Z,4.50
2023-02-13T12:56:46.161Z,4.00
2023-02-13T12:59:27.013Z,5.30
2023-02-13T13:02:16.148Z,4.53
2023-02-13T13:04:52.800Z,5.50
2023-02-13T13:07:45.069Z,6.03
2023-02-13T13:10:28.107Z,5.87
2023-02-13T13:13:04.799Z,3.70
2023-02-13T13:15:40.120Z,4.30
2023-02-13T13:18:23.637Z,4.30
2023-02-13T13:21:03.063Z,4.40
2023-02-13T13:23:33.659Z,4.40
2023-02-13T13:26:13.861Z,5.43
2023-02-13T13:28:43.270Z,4.10
2023-02-13T13:31:11.800Z,4.67
2023-02-13T13:33:42.863Z,4.57
2023-02-13T13:36:14.927Z,5.10
2023-02-13T13:38:50.844Z,4.63
2023-02-13T13:41:28.112Z,5.20
2023-02-13T13:44:04.958Z,5.33
2023-02-13T13:46:42.315Z,5.50
2023-02-13T13:49:24.867Z,4.90
2023-02-13T13:51:51.594Z,5.60
2023-02-13T13:54:33.503Z,6.60
2023-02-13T13:57:12.426Z,6.20
2023-02-13T13:59:58.468Z,6.50
2023-02-13T14:02:39.768Z,6.90
2023-02-13T14:05:23.315Z,5.93
2023-02-13T14:07:52.280Z,7.43
2023-02-13T14:11:08.039Z,6.63
2023-02-13T14:13:38.440Z,6.70
2023-02-13T14:16:09.695Z,6.53
2023-02-13T14:18:37.115Z,6.17
2023-02-13T14:21:04.848Z,6.27
2023-02-13T14:23:47.953Z,6.33
2023-02-13T14:26:33.490Z,6.57
2023-02-13T14:29:21.976Z,5.93
2023-02-13T14:32:04.065Z,6.93
2023-02-13T14:34:33.350Z,6.70
2023-02-13T14:37:15.294Z,6.63
2023-02-13T14:39:41.969Z,6.77
2023-02-13T14:42:23.861Z,7.30
2023-02-13T14:44:56.174Z,6.90
2023-02-13T14:47:28.471Z,7.83
2023-02-13T14:49:57.008Z,7.30
2023-02-13T14:52:26.674Z,7.47
2023-02-13T14:54:55.846Z,7.90
2023-02-13T14:57:26.520Z,6.63
2023-02-13T14:59:58.232Z,5.23
2023-02-13T15:02:27.746Z,6.10
2023-02-13T15:04:58.414Z,4.70
2023-02-13T15:07:28.985Z,5.87
2023-02-13T15:10:00.137Z,5.80
2023-02-13T15:12:29.164Z,6.50
2023-02-13T15:14:57.917Z,6.17
2023-02-13T15:17:27.598Z,6.30
2023-02-13T15:19:56.480Z,7.40
2023-02-13T15:22:31.929Z,5.90
2023-02-13T15:24:59.424Z,7.03
2023-02-13T15:27:28.216Z,7.30
2023-02-13T15:29:59.077Z,5.77
2023-02-13T15:32:29.797Z,6.40
2023-02-13T15:34:56.491Z,6.13
2023-02-13T15:37:25.030Z,6.73
2023-02-13T15:39:51.734Z,6.33
2023-02-13T15:42:18.647Z,5.90
2023-02-13T15:44:47.288Z,8.57
2023-02-13T15:47:20.863Z,9.70
2023-02-13T15:49:48.285Z,12.20
2023-02-13T15:52:19.994Z,9.20
2023-02-13T15:54:51.550Z,7.60
2023-02-13T15:57:18.810Z,8.00
2023-02-13T15:59:46.528Z,6.33
2023-02-13T16:02:18.757Z,6.10
2023-02-13T16:04:47.731Z,6.80
2023-02-13T16:07:14.776Z,7.47
2023-02-13T16:09:41.926Z,6.67
2023-02-13T16:12:22.395Z,7.13
2023-02-13T16:14:53.022Z,5.30
2023-02-13T16:17:27.684Z,5.73
2023-02-13T16:19:59.814Z,6.83
2023-02-13T16:22:34.306Z,6.50
2023-02-13T16:25:15.508Z,6.90
2023-02-13T16:27:43.817Z,6.20
2023-02-13T16:30:38.618Z,7.07
2023-02-13T16:33:29.427Z,7.80
2023-02-13T16:35:57.559Z,8.00
2023-02-13T16:38:31.805Z,8.00
2023-02-13T16:41:00.251Z,8.53
2023-02-13T16:43:37.262Z,9.27
2023-02-13T16:46:27.691Z,8.63
2023-02-13T16:49:26.372Z,8.90
2023-02-13T16:51:57.414Z,7.67
2023-02-13T16:54:30.393Z,8.33
2023-02-13T16:56:59.905Z,7.87
2023-02-13T16:59:48.301Z,8.40
2023-02-13T17:02:18.212Z,8.47
2023-02-13T17:04:48.623Z,7.57
2023-02-13T17:07:22.119Z,7.10
2023-02-13T17:09:56.911Z,6.63
2023-02-13T17:12:24.242Z,8.77
2023-02-13T17:14:51.356Z,8.40
2023-02-13T17:17:20.896Z,8.60
2023-02-13T17:19:49.710Z,8.70
2023-02-13T17:22:30.981Z,9.43
2023-02-13T17:24:57.873Z,8.80
2023-02-13T17:27:24.638Z,10.50
2023-02-13T17:29:51.682Z,8.87
2023-02-13T17:32:21.656Z,11.47
2023-02-13T17:34:49.692Z,11.13
2023-02-13T17:37:19.261Z,11.13
2023-02-13T17:39:46.500Z,11.10
2023-02-13T17:42:17.702Z,10.27
2023-02-13T17:44:44.752Z,8.67
2023-02-13T17:47:11.419Z,7.87
2023-02-13T17:49:38.065Z,7.57
2023-02-13T17:52:06.351Z,8.73
2023-02-13T17:54:33.015Z,9.87
2023-02-13T17:57:00.045Z,7.00
2023-02-13T17:59:26.717Z,8.93
2023-02-13T18:01:53.400Z,10.03
2023-02-13T18:04:20.023Z,7.77
2023-02-13T18:06:46.741Z,8.70
2023-02-13T18:09:14.719Z,6.70
2023-02-13T18:11:41.403Z,7.43
2023-02-13T18:14:08.055Z,7.00
2023-02-13T18:16:34.695Z,8.23
2023-02-13T18:19:01.341Z,8.50
2023-02-13T18:21:28.082Z,8.63
2023-02-13T18:23:54.749Z,8.50
2023-02-13T18:26:23.039Z,7.23
2023-02-13T18:28:49.716Z,8.27
2023-02-13T18:31:16.487Z,7.70
2023-02-13T18:33:43.235Z,7.03
2023-02-13T18:36:10.186Z,8.40
2023-02-13T18:38:36.861Z,7.90
2023-02-13T18:41:04.141Z,7.03
2023-02-13T18:43:32.208Z,8.43
2023-02-13T18:45:58.994Z,7.20
2023-02-13T18:48:25.693Z,6.30
2023-02-13T18:50:52.429Z,7.40
2023-02-13T18:53:19.106Z,6.90
2023-02-13T18:55:45.819Z,6.90
2023-02-13T18:58:12.473Z,6.70
2023-02-13T19:00:40.527Z,7.00
2023-02-13T19:03:07.170Z,5.27
2023-02-13T19:05:33.864Z,5.10
2023-02-13T19:08:00.983Z,6.50
2023-02-13T19:10:27.690Z,8.07
2023-02-13T19:12:54.378Z,4.97
2023-02-13T19:15:21.044Z,4.77
2023-02-13T19:17:49.161Z,6.00
2023-02-13T19:20:17.023Z,5.70
2023-02-13T19:22:43.754Z,5.20
2023-02-13T19:25:10.409Z,6.80
2023-02-13T19:27:37.338Z,6.07
2023-02-13T19:30:04.924Z,6.50
2023-02-13T19:32:31.613Z,6.57
2023-02-13T19:34:59.631Z,5.50
2023-02-13T19:37:28.499Z,5.80
2023-02-13T19:39:57.323Z,6.87
2023-02-13T19:42:23.978Z,7.13
2023-02-13T19:44:50.655Z,7.47
2023-02-13T19:47:17.388Z,7.87
2023-02-13T19:49:44.018Z,7.37
2023-02-13T19:52:12.038Z,7.30
2023-02-13T19:54:38.706Z,7.53
2023-02-13T19:57:05.392Z,6.50
2023-02-13T19:59:32.073Z,5.70
2023-02-13T20:01:58.937Z,6.80
2023-02-13T20:04:25.587Z,5.93
2023-02-13T20:06:52.248Z,5.07
2023-02-13T20:09:20.217Z,5.47
2023-02-13T20:11:46.855Z,5.47
2023-02-13T20:14:13.894Z,7.13
2023-02-13T20:16:40.941Z,6.50
2023-02-13T20:19:08.012Z,5.80
2023-02-13T20:21:35.403Z,6.60
2023-02-13T20:24:02.598Z,6.00
2023-02-13T20:26:30.991Z,5.73
2023-02-13T20:28:57.761Z,6.10
2023-02-13T20:31:24.598Z,5.87
2023-02-13T20:33:52.271Z,5.60
2023-02-13T20:36:20.950Z,5.63
2023-02-13T20:38:48.035Z,5.80
2023-02-13T20:41:17.142Z,5.93
2023-02-13T20:43:45.477Z,6.30
2023-02-13T20:46:12.208Z,5.67
2023-02-13T20:48:40.182Z,4.90
2023-02-13T20:51:09.290Z,4.83
2023-02-13T20:53:35.939Z,5.10
2023-02-13T20:56:04.470Z,5.67
2023-02-13T20:58:31.321Z,6.60
2023-02-13T21:01:00.008Z,5.50
2023-02-13T21:03:27.396Z,5.10
2023-02-13T21:05:54.143Z,6.90
2023-02-13T21:08:20.841Z,5.30
2023-02-13T21:10:47.569Z,5.30
2023-02-13T21:13:14.233Z,4.90
2023-02-13T21:15:40.904Z,5.70
2023-02-13T21:18:08.955Z,5.60
2023-02-13T21:20:36.659Z,9.50
2023-02-13T21:23:03.318Z,8.23
2023-02-13T21:25:30.025Z,6.73
2023-02-13T21:27:56.740Z,4.50
2023-02-13T21:30:23.537Z,4.70
2023-02-13T21:32:50.266Z,6.40
2023-02-13T21:35:18.542Z,6.47
2023-02-13T21:37:45.230Z,5.13
2023-02-13T21:40:12.587Z,5.80
2023-02-13T21:42:39.378Z,6.20
2023-02-13T21:45:06.349Z,7.33
2023-02-13T21:47:33.005Z,7.10
2023-02-13T21:49:59.685Z,6.87
2023-02-13T21:52:27.657Z,5.90
2023-02-13T21:54:54.353Z,5.13
2023-02-13T21:57:21.038Z,5.63
2023-02-13T21:59:47.734Z,6.07
2023-02-13T22:02:14.443Z,7.23
2023-02-13T22:04:41.300Z,7.53
2023-02-13T22:07:07.999Z,6.73
2023-02-13T22:09:36.065Z,6.53
2023-02-13T22:12:02.784Z,7.40
2023-02-13T22:14:29.474Z,7.70
2023-02-13T22:16:56.222Z,6.27
2023-02-13T22:19:23.059Z,8.20
2023-02-13T22:21:49.860Z,8.53
2023-02-13T22:24:16.563Z,6.63
2023-02-13T22:26:44.599Z,9.17
2023-02-13T22:29:13.439Z,13.27
2023-02-13T22:31:40.906Z,13.67
2023-02-13T22:34:11.758Z,12.70
2023-02-13T22:36:38.438Z,11.00
2023-02-13T22:39:06.133Z,10.97
2023-02-13T22:41:32.844Z,8.00
2023-02-13T22:44:00.909Z,8.67
2023-02-13T22:46:29.227Z,8.40
2023-02-13T22:48:57.081Z,10.47
2023-02-13T22:51:26.177Z,11.47
2023-02-13T22:53:53.764Z,12.20
2023-02-13T22:56:20.990Z,13.07
2023-02-13T22:58:47.656Z,9.50
2023-02-13T23:01:17.896Z,11.43
2023-02-13T23:03:45.624Z,10.87
2023-02-13T23:06:14.402Z,12.73
2023-02-13T23:08:41.915Z,11.23
2023-02-13T23:11:10.661Z,10.87
2023-02-13T23:13:37.330Z,11.80
2023-02-13T23:16:11.147Z,9.70
2023-02-13T23:18:39.222Z,10.43
2023-02-13T23:21:07.456Z,12.00
2023-02-13T23:23:36.130Z,10.17
2023-02-13T23:26:04.100Z,10.40
2023-02-13T23:28:30.837Z,11.83
2023-02-13T23:30:57.892Z,10.53
2023-02-13T23:33:24.825Z,10.30
2023-02-13T23:35:52.865Z,11.03
2023-02-13T23:38:19.496Z,10.90
2023-02-13T23:40:46.474Z,9.73
2023-02-13T23:43:13.297Z,12.23
2023-02-13T23:45:40.045Z,10.80
2023-02-13T23:48:07.088Z,11.37
2023-02-13T23:50:33.770Z,11.87
2023-02-13T23:53:01.760Z,12.43
2023-02-13T23:55:28.402Z,12.80
2023-02-13T23:57:55.137Z,13.97
